sensor_id;sensor_type;location;lat;lon;timestamp;pressure;altitude;pressure_sealevel;temperature;humidity
72975;BME280;61166;54.228;37.632;2023-04-06T00:02:19;99620.16;;;8.45;nan
72975;BME280;61166;54.228;37.632;2023-04-06T00:04:46;99626.41;;;8.44;nan
72975;BME280;61166;54.228;37.632;2023-04-06T00:07:12;99627.78;;;8.40;nan
72975;BME280;61166;54.228;37.632;2023-04-06T00:09:39;99627.91;;;8.53;nan
72975;BME280;61166;54.228;37.632;2023-04-06T00:12:06;99623.53;;;8.39;nan
72975;BME280;61166;54.228;37.632;2023-04-06T00:14:32;99633.09;;;8.32;nan
72975;BME280;61166;54.228;37.632;2023-04-06T00:16:59;99622.78;;;8.30;nan
72975;BME280;61166;54.228;37.632;2023-04-06T00:19:26;99630.13;;;8.35;nan
72975;BME280;61166;54.228;37.632;2023-04-06T00:21:52;99629.31;;;8.34;nan
72975;BME280;61166;54.228;37.632;2023-04-06T00:24:19;99630.22;;;8.26;nan
72975;BME280;61166;54.228;37.632;2023-04-06T00:26:45;99627.09;;;8.16;nan
72975;BME280;61166;54.228;37.632;2023-04-06T00:29:12;99626.97;;;8.03;nan
72975;BME280;61166;54.228;37.632;2023-04-06T00:31:38;99617.09;;;8.05;nan
72975;BME280;61166;54.228;37.632;2023-04-06T00:34:05;99625.25;;;7.95;nan
72975;BME280;61166;54.228;37.632;2023-04-06T00:36:32;99626.25;;;7.94;nan
72975;BME280;61166;54.228;37.632;2023-04-06T00:38:59;99627.16;;;7.87;nan
72975;BME280;61166;54.228;37.632;2023-04-06T00:41:25;99627.63;;;7.76;nan
72975;BME280;61166;54.228;37.632;2023-04-06T00:43:53;99616.69;;;7.72;nan
72975;BME280;61166;54.228;37.632;2023-04-06T00:46:20;99616.78;;;7.64;nan
72975;BME280;61166;54.228;37.632;2023-04-06T00:48:46;99615.53;;;7.60;nan
72975;BME280;61166;54.228;37.632;2023-04-06T00:51:14;99607.94;;;7.65;nan
72975;BME280;61166;54.228;37.632;2023-04-06T00:53:41;99610.16;;;7.47;nan
72975;BME280;61166;54.228;37.632;2023-04-06T00:56:07;99623.94;;;7.41;nan
72975;BME280;61166;54.228;37.632;2023-04-06T00:58:34;99621.13;;;7.57;nan
72975;BME280;61166;54.228;37.632;2023-04-06T01:01:00;99616.69;;;7.57;nan
72975;BME280;61166;54.228;37.632;2023-04-06T01:03:27;99618.69;;;7.55;nan
72975;BME280;61166;54.228;37.632;2023-04-06T01:05:54;99621.78;;;7.44;nan
72975;BME280;61166;54.228;37.632;2023-04-06T01:08:20;99620.50;;;7.40;nan
72975;BME280;61166;54.228;37.632;2023-04-06T01:10:47;99619.16;;;7.44;nan
72975;BME280;61166;54.228;37.632;2023-04-06T01:13:13;99622.59;;;7.30;nan
72975;BME280;61166;54.228;37.632;2023-04-06T01:15:40;99624.84;;;7.33;nan
72975;BME280;61166;54.228;37.632;2023-04-06T01:18:08;99625.22;;;7.45;nan
72975;BME280;61166;54.228;37.632;2023-04-06T01:20:35;99620.78;;;7.45;nan
72975;BME280;61166;54.228;37.632;2023-04-06T01:23:02;99627.47;;;7.48;nan
72975;BME280;61166;54.228;37.632;2023-04-06T01:25:28;99633.69;;;7.47;nan
72975;BME280;61166;54.228;37.632;2023-04-06T01:27:55;99625.91;;;7.53;nan
72975;BME280;61166;54.228;37.632;2023-04-06T01:30:21;99628.69;;;7.52;nan
72975;BME280;61166;54.228;37.632;2023-04-06T01:32:48;99630.44;;;7.30;nan
72975;BME280;61166;54.228;37.632;2023-04-06T01:35:15;99633.16;;;7.37;nan
72975;BME280;61166;54.228;37.632;2023-04-06T01:37:41;99627.19;;;7.28;nan
72975;BME280;61166;54.228;37.632;2023-04-06T01:40:08;99632.78;;;7.25;nan
72975;BME280;61166;54.228;37.632;2023-04-06T01:42:35;99647.31;;;7.42;nan
72975;BME280;61166;54.228;37.632;2023-04-06T01:45:01;99646.06;;;7.38;nan
72975;BME280;61166;54.228;37.632;2023-04-06T01:47:28;99647.28;;;7.27;nan
72975;BME280;61166;54.228;37.632;2023-04-06T01:49:54;99642.25;;;7.26;nan
72975;BME280;61166;54.228;37.632;2023-04-06T01:52:21;99643.59;;;7.22;nan
72975;BME280;61166;54.228;37.632;2023-04-06T01:54:48;99646.13;;;7.30;nan
72975;BME280;61166;54.228;37.632;2023-04-06T01:57:14;99641.59;;;7.24;nan
72975;BME280;61166;54.228;37.632;2023-04-06T01:59:41;99644.50;;;7.29;nan
72975;BME280;61166;54.228;37.632;2023-04-06T02:02:07;99647.28;;;7.27;nan
72975;BME280;61166;54.228;37.632;2023-04-06T02:04:34;99656.38;;;7.17;nan
72975;BME280;61166;54.228;37.632;2023-04-06T02:07:00;99639.31;;;7.06;nan
72975;BME280;61166;54.228;37.632;2023-04-06T02:09:27;99640.03;;;7.00;nan
72975;BME280;61166;54.228;37.632;2023-04-06T02:11:53;99637.59;;;6.99;nan
72975;BME280;61166;54.228;37.632;2023-04-06T02:14:20;99646.56;;;7.19;nan
72975;BME280;61166;54.228;37.632;2023-04-06T02:16:47;99644.53;;;7.06;nan
72975;BME280;61166;54.228;37.632;2023-04-06T02:19:13;99644.25;;;7.01;nan
72975;BME280;61166;54.228;37.632;2023-04-06T02:21:40;99641.47;;;7.03;nan
72975;BME280;61166;54.228;37.632;2023-04-06T02:24:06;99643.38;;;7.09;nan
72975;BME280;61166;54.228;37.632;2023-04-06T02:26:33;99642.63;;;7.00;nan
72975;BME280;61166;54.228;37.632;2023-04-06T02:28:59;99640.13;;;6.92;nan
72975;BME280;61166;54.228;37.632;2023-04-06T02:31:26;99639.91;;;6.93;nan
72975;BME280;61166;54.228;37.632;2023-04-06T02:33:53;99646.78;;;6.94;nan
72975;BME280;61166;54.228;37.632;2023-04-06T02:36:19;99649.13;;;6.89;nan
72975;BME280;61166;54.228;37.632;2023-04-06T02:38:46;99646.16;;;6.92;nan
72975;BME280;61166;54.228;37.632;2023-04-06T02:41:12;99643.31;;;6.79;nan
72975;BME280;61166;54.228;37.632;2023-04-06T02:43:39;99645.41;;;6.84;nan
72975;BME280;61166;54.228;37.632;2023-04-06T02:46:05;99653.84;;;6.71;nan
72975;BME280;61166;54.228;37.632;2023-04-06T02:48:32;99648.56;;;6.79;nan
72975;BME280;61166;54.228;37.632;2023-04-06T02:50:58;99650.53;;;6.77;nan
72975;BME280;61166;54.228;37.632;2023-04-06T02:53:25;99653.44;;;6.82;nan
72975;BME280;61166;54.228;37.632;2023-04-06T02:55:51;99662.44;;;6.80;nan
72975;BME280;61166;54.228;37.632;2023-04-06T02:58:18;99662.56;;;6.63;nan
72975;BME280;61166;54.228;37.632;2023-04-06T03:00:44;99668.81;;;6.77;nan
72975;BME280;61166;54.228;37.632;2023-04-06T03:03:11;99668.94;;;6.61;nan
72975;BME280;61166;54.228;37.632;2023-04-06T03:05:37;99669.47;;;6.56;nan
72975;BME280;61166;54.228;37.632;2023-04-06T03:08:04;99669.56;;;6.63;nan
72975;BME280;61166;54.228;37.632;2023-04-06T03:10:31;99685.09;;;6.65;nan
72975;BME280;61166;54.228;37.632;2023-04-06T03:12:57;99676.78;;;6.61;nan
72975;BME280;61166;54.228;37.632;2023-04-06T03:15:24;99685.94;;;6.57;nan
72975;BME280;61166;54.228;37.632;2023-04-06T03:17:50;99681.03;;;6.62;nan
72975;BME280;61166;54.228;37.632;2023-04-06T03:20:17;99680.03;;;6.63;nan
72975;BME280;61166;54.228;37.632;2023-04-06T03:22:43;99682.00;;;6.61;nan
72975;BME280;61166;54.228;37.632;2023-04-06T03:25:10;99681.19;;;6.60;nan
72975;BME280;61166;54.228;37.632;2023-04-06T03:27:36;99683.09;;;6.67;nan
72975;BME280;61166;54.228;37.632;2023-04-06T03:30:03;99683.53;;;6.78;nan
72975;BME280;61166;54.228;37.632;2023-04-06T03:32:30;99683.88;;;6.75;nan
72975;BME280;61166;54.228;37.632;2023-04-06T03:34:57;99688.63;;;6.72;nan
72975;BME280;61166;54.228;37.632;2023-04-06T03:37:23;99691.63;;;6.60;nan
72975;BME280;61166;54.228;37.632;2023-04-06T03:39:50;99689.19;;;6.59;nan
72975;BME280;61166;54.228;37.632;2023-04-06T03:42:16;99682.66;;;6.63;nan
72975;BME280;61166;54.228;37.632;2023-04-06T03:44:43;99691.38;;;6.78;nan
72975;BME280;61166;54.228;37.632;2023-04-06T03:47:09;99685.38;;;6.70;nan
72975;BME280;61166;54.228;37.632;2023-04-06T03:49:36;99689.44;;;6.72;nan
72975;BME280;61166;54.228;37.632;2023-04-06T03:52:05;99686.25;;;6.62;nan
72975;BME280;61166;54.228;37.632;2023-04-06T03:54:32;99692.53;;;6.76;nan
72975;BME280;61166;54.228;37.632;2023-04-06T03:56:58;99694.66;;;6.72;nan
72975;BME280;61166;54.228;37.632;2023-04-06T03:59:25;99694.66;;;6.72;nan
72975;BME280;61166;54.228;37.632;2023-04-06T04:01:51;99690.13;;;6.66;nan
72975;BME280;61166;54.228;37.632;2023-04-06T04:04:18;99697.28;;;6.72;nan
72975;BME280;61166;54.228;37.632;2023-04-06T04:06:44;99697.81;;;6.68;nan
72975;BME280;61166;54.228;37.632;2023-04-06T04:09:11;99699.44;;;6.69;nan
72975;BME280;61166;54.228;37.632;2023-04-06T04:11:37;99704.88;;;7.05;nan
72975;BME280;61166;54.228;37.632;2023-04-06T04:14:04;99703.41;;;6.87;nan
72975;BME280;61166;54.228;37.632;2023-04-06T04:16:30;99708.91;;;6.92;nan
72975;BME280;61166;54.228;37.632;2023-04-06T04:18:57;99706.31;;;6.92;nan
72975;BME280;61166;54.228;37.632;2023-04-06T04:21:24;99709.75;;;7.08;nan
72975;BME280;61166;54.228;37.632;2023-04-06T04:23:51;99706.03;;;7.02;nan
72975;BME280;61166;54.228;37.632;2023-04-06T04:26:17;99704.88;;;7.05;nan
72975;BME280;61166;54.228;37.632;2023-04-06T04:28:44;99708.81;;;7.01;nan
72975;BME280;61166;54.228;37.632;2023-04-06T04:31:10;99708.06;;;7.15;nan
72975;BME280;61166;54.228;37.632;2023-04-06T04:33:37;99715.09;;;7.14;nan
72975;BME280;61166;54.228;37.632;2023-04-06T04:36:03;99713.94;;;7.17;nan
72975;BME280;61166;54.228;37.632;2023-04-06T04:38:30;99710.91;;;7.28;nan
72975;BME280;61166;54.228;37.632;2023-04-06T04:40:57;99713.19;;;7.46;nan
72975;BME280;61166;54.228;37.632;2023-04-06T04:43:23;99707.69;;;7.55;nan
72975;BME280;61166;54.228;37.632;2023-04-06T04:45:50;99711.66;;;7.66;nan
72975;BME280;61166;54.228;37.632;2023-04-06T04:48:16;99716.38;;;7.71;nan
72975;BME280;61166;54.228;37.632;2023-04-06T04:50:43;99710.69;;;7.82;nan
72975;BME280;61166;54.228;37.632;2023-04-06T04:53:09;99716.28;;;7.79;nan
72975;BME280;61166;54.228;37.632;2023-04-06T04:55:36;99712.31;;;7.83;nan
72975;BME280;61166;54.228;37.632;2023-04-06T04:58:02;99711.31;;;7.84;nan
72975;BME280;61166;54.228;37.632;2023-04-06T05:00:29;99714.03;;;7.76;nan
72975;BME280;61166;54.228;37.632;2023-04-06T05:02:55;99713.66;;;7.79;nan
72975;BME280;61166;54.228;37.632;2023-04-06T05:05:22;99716.72;;;7.68;nan
72975;BME280;61166;54.228;37.632;2023-04-06T05:07:48;99710.50;;;7.69;nan
72975;BME280;61166;54.228;37.632;2023-04-06T05:10:15;99717.50;;;7.53;nan
72975;BME280;61166;54.228;37.632;2023-04-06T05:12:41;99718.34;;;7.69;nan
72975;BME280;61166;54.228;37.632;2023-04-06T05:15:09;99722.06;;;7.89;nan
72975;BME280;61166;54.228;37.632;2023-04-06T05:17:36;99709.06;;;7.81;nan
72975;BME280;61166;54.228;37.632;2023-04-06T05:20:02;99725.13;;;7.78;nan
72975;BME280;61166;54.228;37.632;2023-04-06T05:22:29;99719.53;;;7.81;nan
72975;BME280;61166;54.228;37.632;2023-04-06T05:24:56;99724.59;;;7.82;nan
72975;BME280;61166;54.228;37.632;2023-04-06T05:27:22;99729.47;;;7.85;nan
72975;BME280;61166;54.228;37.632;2023-04-06T05:29:49;99726.41;;;7.97;nan
72975;BME280;61166;54.228;37.632;2023-04-06T05:32:15;99732.63;;;7.95;nan
72975;BME280;61166;54.228;37.632;2023-04-06T05:34:42;99726.63;;;8.16;nan
72975;BME280;61166;54.228;37.632;2023-04-06T05:37:09;99730.88;;;8.47;nan
72975;BME280;61166;54.228;37.632;2023-04-06T05:39:35;99724.13;;;8.38;nan
72975;BME280;61166;54.228;37.632;2023-04-06T05:42:04;99725.53;;;8.55;nan
72975;BME280;61166;54.228;37.632;2023-04-06T05:44:30;99739.09;;;8.44;nan
72975;BME280;61166;54.228;37.632;2023-04-06T05:46:57;99727.72;;;8.37;nan
72975;BME280;61166;54.228;37.632;2023-04-06T05:49:23;99733.88;;;8.44;nan
72975;BME280;61166;54.228;37.632;2023-04-06T05:51:50;99737.75;;;8.48;nan
72975;BME280;61166;54.228;37.632;2023-04-06T05:54:16;99737.34;;;8.66;nan
72975;BME280;61166;54.228;37.632;2023-04-06T05:56:43;99743.81;;;8.70;nan
72975;BME280;61166;54.228;37.632;2023-04-06T05:59:09;99740.56;;;8.68;nan
72975;BME280;61166;54.228;37.632;2023-04-06T06:01:36;99731.78;;;8.75;nan
72975;BME280;61166;54.228;37.632;2023-04-06T06:04:03;99740.16;;;8.64;nan
72975;BME280;61166;54.228;37.632;2023-04-06T06:06:30;99746.94;;;8.58;nan
72975;BME280;61166;54.228;37.632;2023-04-06T06:08:56;99738.13;;;8.45;nan
72975;BME280;61166;54.228;37.632;2023-04-06T06:11:23;99740.38;;;8.48;nan
72975;BME280;61166;54.228;37.632;2023-04-06T06:13:50;99743.63;;;8.20;nan
72975;BME280;61166;54.228;37.632;2023-04-06T06:16:18;99739.00;;;8.22;nan
72975;BME280;61166;54.228;37.632;2023-04-06T06:18:45;99750.69;;;8.05;nan
72975;BME280;61166;54.228;37.632;2023-04-06T06:21:11;99747.31;;;8.11;nan
72975;BME280;61166;54.228;37.632;2023-04-06T06:23:38;99744.34;;;8.29;nan
72975;BME280;61166;54.228;37.632;2023-04-06T06:26:05;99744.97;;;8.31;nan
72975;BME280;61166;54.228;37.632;2023-04-06T06:33:24;99747.78;;;8.80;nan
72975;BME280;61166;54.228;37.632;2023-04-06T06:35:51;99750.22;;;9.03;nan
72975;BME280;61166;54.228;37.632;2023-04-06T06:38:18;99743.03;;;9.12;nan
72975;BME280;61166;54.228;37.632;2023-04-06T06:40:48;99743.75;;;9.27;nan
72975;BME280;61166;54.228;37.632;2023-04-06T06:43:15;99740.50;;;9.46;nan
72975;BME280;61166;54.228;37.632;2023-04-06T06:45:42;99742.94;;;9.48;nan
72975;BME280;61166;54.228;37.632;2023-04-06T06:48:08;99734.66;;;9.51;nan
72975;BME280;61166;54.228;37.632;2023-04-06T06:50:35;99741.53;;;9.80;nan
72975;BME280;61166;54.228;37.632;2023-04-06T06:53:02;99750.66;;;10.18;nan
72975;BME280;61166;54.228;37.632;2023-04-06T06:55:28;99737.81;;;10.43;nan
72975;BME280;61166;54.228;37.632;2023-04-06T06:57:55;99738.34;;;10.73;nan
72975;BME280;61166;54.228;37.632;2023-04-06T07:00:21;99736.38;;;11.35;nan
72975;BME280;61166;54.228;37.632;2023-04-06T07:02:48;99728.84;;;11.91;nan
72975;BME280;61166;54.228;37.632;2023-04-06T07:05:15;99733.66;;;12.07;nan
72975;BME280;61166;54.228;37.632;2023-04-06T07:07:49;99727.22;;;12.48;nan
72975;BME280;61166;54.228;37.632;2023-04-06T07:10:16;99731.28;;;13.20;nan
72975;BME280;61166;54.228;37.632;2023-04-06T07:12:42;99717.03;;;14.85;nan
72975;BME280;61166;54.228;37.632;2023-04-06T07:15:09;99732.25;;;15.67;nan
72975;BME280;61166;54.228;37.632;2023-04-06T07:17:36;99718.44;;;16.68;nan
72975;BME280;61166;54.228;37.632;2023-04-06T07:20:02;99733.41;;;16.34;nan
72975;BME280;61166;54.228;37.632;2023-04-06T07:22:29;99740.56;;;15.59;nan
72975;BME280;61166;54.228;37.632;2023-04-06T07:24:56;99742.22;;;14.76;nan
72975;BME280;61166;54.228;37.632;2023-04-06T07:27:22;99734.44;;;15.05;nan
72975;BME280;61166;54.228;37.632;2023-04-06T07:29:49;99729.88;;;15.12;nan
72975;BME280;61166;54.228;37.632;2023-04-06T07:32:15;99745.69;;;15.30;nan
72975;BME280;61166;54.228;37.632;2023-04-06T07:34:42;99728.78;;;15.55;nan
72975;BME280;61166;54.228;37.632;2023-04-06T07:37:08;99734.84;;;15.32;nan
72975;BME280;61166;54.228;37.632;2023-04-06T07:39:35;99724.69;;;15.17;nan
72975;BME280;61166;54.228;37.632;2023-04-06T07:42:01;99739.22;;;14.73;nan
72975;BME280;61166;54.228;37.632;2023-04-06T07:44:28;99739.44;;;14.41;nan
72975;BME280;61166;54.228;37.632;2023-04-06T07:46:55;99731.53;;;14.83;nan
72975;BME280;61166;54.228;37.632;2023-04-06T07:49:21;99713.06;;;15.18;nan
72975;BME280;61166;54.228;37.632;2023-04-06T07:51:48;99726.00;;;15.49;nan
72975;BME280;61166;54.228;37.632;2023-04-06T07:54:14;99729.38;;;14.92;nan
72975;BME280;61166;54.228;37.632;2023-04-06T07:56:41;99723.09;;;14.74;nan
72975;BME280;61166;54.228;37.632;2023-04-06T07:59:07;99728.34;;;15.04;nan
72975;BME280;61166;54.228;37.632;2023-04-06T08:01:34;99731.13;;;14.98;nan
72975;BME280;61166;54.228;37.632;2023-04-06T08:04:00;99716.00;;;14.57;nan
72975;BME280;61166;54.228;37.632;2023-04-06T08:06:27;99701.34;;;15.37;nan
72975;BME280;61166;54.228;37.632;2023-04-06T08:08:54;99705.88;;;16.80;nan
72975;BME280;61166;54.228;37.632;2023-04-06T08:11:20;99707.06;;;17.18;nan
72975;BME280;61166;54.228;37.632;2023-04-06T08:13:47;99704.59;;;17.33;nan
72975;BME280;61166;54.228;37.632;2023-04-06T08:16:14;99712.25;;;17.80;nan
72975;BME280;61166;54.228;37.632;2023-04-06T08:18:40;99702.31;;;18.90;nan
72975;BME280;61166;54.228;37.632;2023-04-06T08:21:07;99706.41;;;18.97;nan
72975;BME280;61166;54.228;37.632;2023-04-06T08:23:33;99689.56;;;19.66;nan
72975;BME280;61166;54.228;37.632;2023-04-06T08:26:00;99706.03;;;18.89;nan
72975;BME280;61166;54.228;37.632;2023-04-06T08:28:26;99702.25;;;18.58;nan
72975;BME280;61166;54.228;37.632;2023-04-06T08:30:53;99702.91;;;17.99;nan
72975;BME280;61166;54.228;37.632;2023-04-06T08:33:20;99695.09;;;16.87;nan
72975;BME280;61166;54.228;37.632;2023-04-06T08:35:46;99700.97;;;17.39;nan
72975;BME280;61166;54.228;37.632;2023-04-06T08:38:13;99708.59;;;18.08;nan
72975;BME280;61166;54.228;37.632;2023-04-06T08:40:40;99713.28;;;18.93;nan
72975;BME280;61166;54.228;37.632;2023-04-06T08:43:09;99706.16;;;19.36;nan
72975;BME280;61166;54.228;37.632;2023-04-06T08:45:36;99702.06;;;19.23;nan
72975;BME280;61166;54.228;37.632;2023-04-06T08:48:03;99710.16;;;19.01;nan
72975;BME280;61166;54.228;37.632;2023-04-06T08:50:32;99704.81;;;19.33;nan
72975;BME280;61166;54.228;37.632;2023-04-06T08:52:59;99700.25;;;18.70;nan
72975;BME280;61166;54.228;37.632;2023-04-06T08:55:27;99711.38;;;18.89;nan
72975;BME280;61166;54.228;37.632;2023-04-06T08:57:54;99712.13;;;19.16;nan
72975;BME280;61166;54.228;37.632;2023-04-06T09:00:21;99704.53;;;18.49;nan
72975;BME280;61166;54.228;37.632;2023-04-06T09:02:49;99692.00;;;18.23;nan
72975;BME280;61166;54.228;37.632;2023-04-06T09:05:18;99713.72;;;17.37;nan
72975;BME280;61166;54.228;37.632;2023-04-06T09:07:45;99709.44;;;17.53;nan
72975;BME280;61166;54.228;37.632;2023-04-06T09:10:11;99705.06;;;17.80;nan
72975;BME280;61166;54.228;37.632;2023-04-06T09:12:38;99691.72;;;17.42;nan
72975;BME280;61166;54.228;37.632;2023-04-06T09:15:05;99701.84;;;17.62;nan
72975;BME280;61166;54.228;37.632;2023-04-06T09:17:32;99707.25;;;16.83;nan
72975;BME280;61166;54.228;37.632;2023-04-06T09:20:00;99691.50;;;15.96;nan
72975;BME280;61166;54.228;37.632;2023-04-06T09:22:38;99695.91;;;16.31;nan
72975;BME280;61166;54.228;37.632;2023-04-06T09:25:05;99693.78;;;16.16;nan
72975;BME280;61166;54.228;37.632;2023-04-06T09:27:34;99700.59;;;16.12;nan
72975;BME280;61166;54.228;37.632;2023-04-06T09:30:07;99694.28;;;16.30;nan
72975;BME280;61166;54.228;37.632;2023-04-06T09:32:51;99682.94;;;16.46;nan
72975;BME280;61166;54.228;37.632;2023-04-06T09:35:19;99694.97;;;16.37;nan
72975;BME280;61166;54.228;37.632;2023-04-06T09:37:47;99687.38;;;16.29;nan
72975;BME280;61166;54.228;37.632;2023-04-06T09:40:14;99690.69;;;16.36;nan
72975;BME280;61166;54.228;37.632;2023-04-06T09:42:41;99695.56;;;15.87;nan
72975;BME280;61166;54.228;37.632;2023-04-06T09:45:08;99697.44;;;15.51;nan
72975;BME280;61166;54.228;37.632;2023-04-06T09:47:36;99682.66;;;15.32;nan
72975;BME280;61166;54.228;37.632;2023-04-06T09:50:03;99681.75;;;15.38;nan
72975;BME280;61166;54.228;37.632;2023-04-06T09:52:38;99682.09;;;15.53;nan
72975;BME280;61166;54.228;37.632;2023-04-06T09:55:07;99680.00;;;15.20;nan
72975;BME280;61166;54.228;37.632;2023-04-06T09:57:45;99709.81;;;14.93;nan
72975;BME280;61166;54.228;37.632;2023-04-06T10:00:13;99684.94;;;14.94;nan
72975;BME280;61166;54.228;37.632;2023-04-06T10:05:55;99688.88;;;15.14;nan
72975;BME280;61166;54.228;37.632;2023-04-06T10:08:22;99702.25;;;15.31;nan
72975;BME280;61166;54.228;37.632;2023-04-06T10:10:51;99679.00;;;15.57;nan
72975;BME280;61166;54.228;37.632;2023-04-06T10:13:18;99688.50;;;16.04;nan
72975;BME280;61166;54.228;37.632;2023-04-06T10:15:45;99677.59;;;16.17;nan
72975;BME280;61166;54.228;37.632;2023-04-06T10:18:13;99672.94;;;16.36;nan
72975;BME280;61166;54.228;37.632;2023-04-06T10:21:00;99675.06;;;16.51;nan
72975;BME280;61166;54.228;37.632;2023-04-06T10:23:34;99699.00;;;16.39;nan
72975;BME280;61166;54.228;37.632;2023-04-06T10:26:02;99676.19;;;16.27;nan
72975;BME280;61166;54.228;37.632;2023-04-06T10:28:34;99682.66;;;16.19;nan
72975;BME280;61166;54.228;37.632;2023-04-06T10:31:04;99683.31;;;16.09;nan
72975;BME280;61166;54.228;37.632;2023-04-06T10:33:31;99689.59;;;16.20;nan
72975;BME280;61166;54.228;37.632;2023-04-06T10:36:09;99683.31;;;16.09;nan
72975;BME280;61166;54.228;37.632;2023-04-06T10:38:40;99683.81;;;15.71;nan
72975;BME280;61166;54.228;37.632;2023-04-06T10:41:11;99689.25;;;15.65;nan
72975;BME280;61166;54.228;37.632;2023-04-06T10:43:40;99680.03;;;15.56;nan
72975;BME280;61166;54.228;37.632;2023-04-06T10:46:08;99683.13;;;15.76;nan
72975;BME280;61166;54.228;37.632;2023-04-06T10:48:45;99708.50;;;15.60;nan
72975;BME280;61166;54.228;37.632;2023-04-06T10:51:12;99685.31;;;15.67;nan
72975;BME280;61166;54.228;37.632;2023-04-06T10:53:42;99691.75;;;15.83;nan
72975;BME280;61166;54.228;37.632;2023-04-06T10:56:15;99674.69;;;15.91;nan
72975;BME280;61166;54.228;37.632;2023-04-06T10:58:48;99690.69;;;16.07;nan
72975;BME280;61166;54.228;37.632;2023-04-06T11:01:16;99686.94;;;15.80;nan
72975;BME280;61166;54.228;37.632;2023-04-06T11:06:10;99695.22;;;15.72;nan
72975;BME280;61166;54.228;37.632;2023-04-06T11:08:37;99681.94;;;15.95;nan
72975;BME280;61166;54.228;37.632;2023-04-06T11:11:09;99704.56;;;15.86;nan
72975;BME280;61166;54.228;37.632;2023-04-06T11:16:04;99694.78;;;15.75;nan
72975;BME280;61166;54.228;37.632;2023-04-06T11:18:31;99696.72;;;15.44;nan
72975;BME280;61166;54.228;37.632;2023-04-06T11:20:57;99693.03;;;15.45;nan
72975;BME280;61166;54.228;37.632;2023-04-06T11:23:24;99692.03;;;15.58;nan
72975;BME280;61166;54.228;37.632;2023-04-06T11:25:52;99692.59;;;15.60;nan
72975;BME280;61166;54.228;37.632;2023-04-06T11:28:19;99698.47;;;15.62;nan
72975;BME280;61166;54.228;37.632;2023-04-06T11:30:46;99698.13;;;15.70;nan
72975;BME280;61166;54.228;37.632;2023-04-06T11:33:20;99698.56;;;15.79;nan
72975;BME280;61166;54.228;37.632;2023-04-06T11:35:48;99692.69;;;15.77;nan
72975;BME280;61166;54.228;37.632;2023-04-06T11:38:14;99685.78;;;15.76;nan
72975;BME280;61166;54.228;37.632;2023-04-06T11:40:41;99697.13;;;15.60;nan
72975;BME280;61166;54.228;37.632;2023-04-06T11:43:11;99698.56;;;15.67;nan
72975;BME280;61166;54.228;37.632;2023-04-06T11:45:43;99689.94;;;15.48;nan
72975;BME280;61166;54.228;37.632;2023-04-06T11:48:19;99694.09;;;15.44;nan
72975;BME280;61166;54.228;37.632;2023-04-06T11:50:47;99691.66;;;15.55;nan
72975;BME280;61166;54.228;37.632;2023-04-06T11:53:13;99706.97;;;15.41;nan
72975;BME280;61166;54.228;37.632;2023-04-06T11:55:40;99700.63;;;15.30;nan
72975;BME280;61166;54.228;37.632;2023-04-06T11:58:06;99674.91;;;15.07;nan
72975;BME280;61166;54.228;37.632;2023-04-06T12:00:33;99704.75;;;15.14;nan
72975;BME280;61166;54.228;37.632;2023-04-06T12:03:00;99685.19;;;15.15;nan
72975;BME280;61166;54.228;37.632;2023-04-06T12:05:26;99680.81;;;15.33;nan
72975;BME280;61166;54.228;37.632;2023-04-06T12:07:53;99683.03;;;15.47;nan
72975;BME280;61166;54.228;37.632;2023-04-06T12:10:19;99694.06;;;15.33;nan
72975;BME280;61166;54.228;37.632;2023-04-06T12:12:46;99689.25;;;15.53;nan
72975;BME280;61166;54.228;37.632;2023-04-06T12:15:13;99696.50;;;15.46;nan
72975;BME280;61166;54.228;37.632;2023-04-06T12:17:39;99692.47;;;15.67;nan
72975;BME280;61166;54.228;37.632;2023-04-06T12:20:06;99683.00;;;15.71;nan
72975;BME280;61166;54.228;37.632;2023-04-06T12:22:50;99674.25;;;15.82;nan
72975;BME280;61166;54.228;37.632;2023-04-06T12:25:17;99674.72;;;15.79;nan
72975;BME280;61166;54.228;37.632;2023-04-06T12:27:43;99668.94;;;15.82;nan
72975;BME280;61166;54.228;37.632;2023-04-06T12:30:10;99661.31;;;15.85;nan
72975;BME280;61166;54.228;37.632;2023-04-06T12:32:37;99680.69;;;15.86;nan
72975;BME280;61166;54.228;37.632;2023-04-06T12:35:03;99690.63;;;15.67;nan
72975;BME280;61166;54.228;37.632;2023-04-06T12:37:30;99693.38;;;15.61;nan
72975;BME280;61166;54.228;37.632;2023-04-06T12:39:58;99691.44;;;15.68;nan
72975;BME280;61166;54.228;37.632;2023-04-06T12:42:24;99695.81;;;15.74;nan
72975;BME280;61166;54.228;37.632;2023-04-06T12:44:51;99663.91;;;15.57;nan
72975;BME280;61166;54.228;37.632;2023-04-06T12:47:17;99689.47;;;15.51;nan
72975;BME280;61166;54.228;37.632;2023-04-06T12:49:44;99691.78;;;15.48;nan
72975;BME280;61166;54.228;37.632;2023-04-06T12:52:10;99671.25;;;15.55;nan
72975;BME280;61166;54.228;37.632;2023-04-06T12:54:37;99688.19;;;15.42;nan
72975;BME280;61166;54.228;37.632;2023-04-06T12:57:03;99684.28;;;15.33;nan
72975;BME280;61166;54.228;37.632;2023-04-06T12:59:30;99670.47;;;15.43;nan
72975;BME280;61166;54.228;37.632;2023-04-06T13:01:57;99677.81;;;15.29;nan
72975;BME280;61166;54.228;37.632;2023-04-06T13:04:23;99662.50;;;15.19;nan
72975;BME280;61166;54.228;37.632;2023-04-06T13:06:50;99674.13;;;15.18;nan
72975;BME280;61166;54.228;37.632;2023-04-06T13:09:16;99669.06;;;15.17;nan
72975;BME280;61166;54.228;37.632;2023-04-06T13:11:43;99661.91;;;15.29;nan
72975;BME280;61166;54.228;37.632;2023-04-06T13:14:10;99673.78;;;15.38;nan
72975;BME280;61166;54.228;37.632;2023-04-06T13:16:37;99656.84;;;15.39;nan
72975;BME280;61166;54.228;37.632;2023-04-06T13:19:04;99659.03;;;15.42;nan
72975;BME280;61166;54.228;37.632;2023-04-06T13:21:30;99665.75;;;15.57;nan
72975;BME280;61166;54.228;37.632;2023-04-06T13:23:58;99658.59;;;15.45;nan
72975;BME280;61166;54.228;37.632;2023-04-06T13:26:24;99659.50;;;15.51;nan
72975;BME280;61166;54.228;37.632;2023-04-06T13:28:51;99662.84;;;15.46;nan
72975;BME280;61166;54.228;37.632;2023-04-06T13:31:17;99657.78;;;15.45;nan